createdAt,value
2018-07-14T00:00:42.123Z,18.00
2018-07-14T00:03:10.597Z,17.90
2018-07-14T00:05:39.193Z,17.90
2018-07-14T00:08:07.633Z,17.90
2018-07-14T00:10:36.125Z,17.80
2018-07-14T00:13:04.721Z,17.80
2018-07-14T00:18:01.463Z,17.80
2018-07-14T00:20:30.069Z,17.80
2018-07-14T00:22:58.510Z,17.70
2018-07-14T00:25:32.411Z,17.70
2018-07-14T00:28:00.921Z,17.70
2018-07-14T00:30:29.371Z,17.60
2018-07-14T00:32:57.821Z,17.60
2018-07-14T00:35:26.265Z,17.60
2018-07-14T00:37:54.681Z,17.60
2018-07-14T00:40:23.152Z,17.60
2018-07-14T00:42:52.142Z,17.50
2018-07-14T00:45:20.744Z,17.60
2018-07-14T00:47:49.300Z,17.60
2018-07-14T00:50:17.755Z,17.50
2018-07-14T00:52:46.212Z,17.50
2018-07-14T00:55:14.761Z,17.40
2018-07-14T00:57:43.239Z,17.40
2018-07-14T01:00:11.759Z,17.40
2018-07-14T01:02:41.705Z,17.30
2018-07-14T01:07:38.492Z,17.30
2018-07-14T01:12:35.350Z,17.30
2018-07-14T01:15:03.845Z,17.30
2018-07-14T01:17:32.349Z,17.20
2018-07-14T01:20:02.369Z,17.20
2018-07-14T01:22:30.825Z,17.10
2018-07-14T01:29:55.618Z,17.10
2018-07-14T01:32:24.137Z,17.10
2018-07-14T01:34:52.598Z,17.10
2018-07-14T01:37:21.052Z,17.00
2018-07-14T01:39:49.508Z,17.00
2018-07-14T01:42:18.055Z,17.00
2018-07-14T01:44:46.474Z,17.00
2018-07-14T01:47:14.922Z,16.90
2018-07-14T01:49:43.383Z,16.90
2018-07-14T01:52:11.830Z,16.90
2018-07-14T01:54:40.276Z,16.90
2018-07-14T01:57:08.775Z,16.90
2018-07-14T01:59:37.212Z,16.90
2018-07-14T02:02:05.950Z,16.80
2018-07-14T02:04:34.505Z,16.80
2018-07-14T02:07:03.118Z,16.70
2018-07-14T02:09:31.602Z,16.70
2018-07-14T02:12:00.137Z,16.70
2018-07-14T02:14:28.688Z,16.60
2018-07-14T02:16:57.148Z,16.60
2018-07-14T02:19:25.607Z,16.50
2018-07-14T02:21:54.178Z,16.50
2018-07-14T02:24:22.674Z,16.50
2018-07-14T02:26:51.278Z,16.50
2018-07-14T02:29:19.828Z,16.50
2018-07-14T02:31:48.358Z,16.40
2018-07-14T02:34:18.178Z,16.40
2018-07-14T02:36:46.664Z,16.40
2018-07-14T02:39:15.781Z,16.40
2018-07-14T02:41:44.251Z,16.30
2018-07-14T02:44:13.708Z,16.30
2018-07-14T02:46:42.277Z,16.20
2018-07-14T02:49:10.854Z,16.20
2018-07-14T02:51:40.504Z,16.20
2018-07-14T02:54:09.034Z,16.10
2018-07-14T02:56:37.728Z,16.10
2018-07-14T02:59:06.459Z,16.10
2018-07-14T03:01:34.990Z,16.10
2018-07-14T03:04:03.427Z,16.10
2018-07-14T03:06:31.965Z,16.10
2018-07-14T03:09:00.412Z,16.10
2018-07-14T03:11:28.873Z,16.10
2018-07-14T03:13:57.386Z,16.10
2018-07-14T03:16:26.354Z,16.10
2018-07-14T03:18:55.246Z,16.00
2018-07-14T03:21:24.960Z,16.00
2018-07-14T03:23:53.456Z,16.00
2018-07-14T03:26:22.524Z,16.00
2018-07-14T03:28:51.076Z,16.00
2018-07-14T03:31:20.152Z,15.90
2018-07-14T03:33:48.581Z,15.90
2018-07-14T03:36:17.131Z,15.90
2018-07-14T03:38:45.603Z,15.90
2018-07-14T03:41:14.075Z,15.90
2018-07-14T03:43:42.619Z,15.90
2018-07-14T03:46:11.062Z,15.80
2018-07-14T03:48:39.505Z,15.80
2018-07-14T03:51:07.985Z,15.90
2018-07-14T03:53:36.466Z,15.80
2018-07-14T03:56:05.573Z,15.80
2018-07-14T03:58:35.188Z,15.70
2018-07-14T04:01:03.719Z,15.60
2018-07-14T04:03:32.289Z,15.60
2018-07-14T04:06:00.747Z,15.60
2018-07-14T04:08:29.212Z,15.50
2018-07-14T04:10:58.327Z,15.50
2018-07-14T04:13:26.778Z,15.50
2018-07-14T04:15:55.267Z,15.60
2018-07-14T04:18:23.701Z,15.60
2018-07-14T04:20:52.149Z,15.60
2018-07-14T04:23:20.611Z,15.60
2018-07-14T04:25:49.183Z,15.50
2018-07-14T04:28:17.629Z,15.60
2018-07-14T04:30:46.101Z,15.50
2018-07-14T04:33:14.701Z,15.60
2018-07-14T04:35:43.165Z,15.60
2018-07-14T04:38:11.662Z,15.60
2018-07-14T04:40:40.121Z,15.70
2018-07-14T04:43:08.597Z,15.70
2018-07-14T04:45:37.147Z,15.70
2018-07-14T04:48:06.898Z,15.70
2018-07-14T04:50:35.342Z,15.80
2018-07-14T04:53:03.888Z,15.80
2018-07-14T04:55:32.388Z,15.80
2018-07-14T04:58:00.849Z,15.90
2018-07-14T05:00:29.353Z,15.90
2018-07-14T05:02:57.901Z,15.90
2018-07-14T05:05:26.351Z,16.10
2018-07-14T05:07:54.826Z,16.20
2018-07-14T05:10:23.330Z,16.20
2018-07-14T05:12:51.901Z,16.30
2018-07-14T05:15:20.565Z,16.40
2018-07-14T05:17:49.134Z,16.50
2018-07-14T05:20:17.579Z,16.60
2018-07-14T05:22:46.136Z,16.70
2018-07-14T05:25:14.667Z,16.80
2018-07-14T05:27:43.262Z,16.90
2018-07-14T05:30:11.754Z,16.80
2018-07-14T05:32:40.308Z,16.80
2018-07-14T05:35:09.729Z,16.90
2018-07-14T05:37:38.325Z,16.90
2018-07-14T05:40:06.850Z,17.00
2018-07-14T05:42:35.346Z,16.90
2018-07-14T05:45:04.003Z,16.80
2018-07-14T05:47:32.560Z,16.80
2018-07-14T05:50:01.018Z,16.90
2018-07-14T05:52:29.519Z,16.90
2018-07-14T05:54:58.049Z,16.90
2018-07-14T05:57:26.543Z,16.90
2018-07-14T05:59:55.032Z,16.90
2018-07-14T06:02:23.572Z,17.00
2018-07-14T06:04:52.158Z,17.10
2018-07-14T06:07:20.707Z,17.20
2018-07-14T06:09:49.414Z,17.30
2018-07-14T06:12:17.907Z,17.50
2018-07-14T06:14:46.403Z,17.70
2018-07-14T06:17:14.917Z,17.80
2018-07-14T06:19:43.548Z,18.00
2018-07-14T06:22:12.143Z,18.10
2018-07-14T06:24:40.593Z,18.30
2018-07-14T06:27:09.203Z,18.40
2018-07-14T06:29:37.722Z,18.50
2018-07-14T06:32:06.216Z,18.60
2018-07-14T06:34:34.805Z,18.60
2018-07-14T06:37:03.445Z,18.60
2018-07-14T06:39:31.975Z,18.70
2018-07-14T06:42:00.609Z,18.80
2018-07-14T06:44:29.137Z,18.90
2018-07-14T06:46:57.625Z,19.00
2018-07-14T06:49:26.079Z,18.90
2018-07-14T06:51:54.602Z,19.00
2018-07-14T06:54:24.871Z,18.90
2018-07-14T06:56:53.660Z,19.00
2018-07-14T06:59:22.328Z,19.00
2018-07-14T07:01:50.859Z,19.10
2018-07-14T07:04:19.340Z,19.20
2018-07-14T07:06:48.100Z,19.20
2018-07-14T07:09:16.703Z,19.20
2018-07-14T07:11:45.165Z,19.20
2018-07-14T07:14:13.724Z,19.30
2018-07-14T07:16:42.231Z,19.20
2018-07-14T07:19:10.695Z,19.20
2018-07-14T07:21:39.303Z,19.20
2018-07-14T07:24:07.764Z,19.20
2018-07-14T07:26:36.319Z,19.30
2018-07-14T07:29:04.825Z,19.40
2018-07-14T07:31:33.281Z,19.50
2018-07-14T07:34:02.131Z,19.50
2018-07-14T07:36:30.691Z,19.50
2018-07-14T07:38:59.470Z,19.60
2018-07-14T07:41:27.958Z,19.60
2018-07-14T07:43:56.655Z,19.70
2018-07-14T07:46:25.384Z,19.80
2018-07-14T07:48:54.019Z,19.80
2018-07-14T07:51:22.480Z,20.00
2018-07-14T07:53:50.924Z,20.20
2018-07-14T07:56:19.404Z,20.30
2018-07-14T07:58:47.856Z,20.40
2018-07-14T08:01:16.328Z,20.60
2018-07-14T08:03:44.950Z,20.80
2018-07-14T08:06:13.434Z,20.90
2018-07-14T08:08:42.057Z,20.90
2018-07-14T08:11:10.664Z,21.10
2018-07-14T08:13:39.236Z,21.40
2018-07-14T08:18:35.907Z,21.60
2018-07-14T08:21:04.385Z,21.60
2018-07-14T08:23:32.922Z,21.80
2018-07-14T08:26:02.985Z,21.90
2018-07-14T08:28:31.538Z,22.00
2018-07-14T08:30:59.980Z,22.00
2018-07-14T08:33:28.450Z,22.10
2018-07-14T08:35:57.032Z,22.20
2018-07-14T08:38:25.498Z,22.20
2018-07-14T08:40:53.964Z,22.40
2018-07-14T08:43:22.469Z,22.60
2018-07-14T08:45:50.938Z,22.80
2018-07-14T08:48:19.454Z,22.90
2018-07-14T08:50:48.018Z,23.20
2018-07-14T08:53:16.593Z,23.30
2018-07-14T08:55:45.112Z,23.50
2018-07-14T08:58:13.691Z,23.60
2018-07-14T09:00:42.168Z,23.70
2018-07-14T09:03:10.638Z,23.80
2018-07-14T09:05:39.405Z,23.90
2018-07-14T09:10:36.112Z,24.10
2018-07-14T09:13:04.697Z,24.30
2018-07-14T09:15:33.235Z,24.60
2018-07-14T09:18:01.816Z,24.50
2018-07-14T09:22:58.588Z,24.90
2018-07-14T09:25:27.066Z,25.00
2018-07-14T09:27:55.664Z,24.90
2018-07-14T09:30:25.304Z,25.00
2018-07-14T09:32:53.814Z,25.10
2018-07-14T09:35:22.322Z,25.60
2018-07-14T09:37:50.793Z,25.90
2018-07-14T09:40:19.418Z,26.30
2018-07-14T09:42:48.398Z,26.40
2018-07-14T09:45:16.913Z,26.20
2018-07-14T09:47:45.393Z,26.00
2018-07-14T09:50:13.891Z,26.10
2018-07-14T09:52:42.436Z,25.90
2018-07-14T09:55:10.943Z,25.80
2018-07-14T09:57:39.357Z,26.00
2018-07-14T10:00:12.041Z,26.40
2018-07-14T10:02:40.806Z,26.70
2018-07-14T10:05:09.969Z,26.70
2018-07-14T10:07:38.900Z,27.20
2018-07-14T10:10:07.556Z,27.60
2018-07-14T10:12:36.019Z,27.40
2018-07-14T10:15:04.591Z,27.60
2018-07-14T10:17:33.032Z,27.90
2018-07-14T10:20:01.447Z,27.80
2018-07-14T10:22:30.150Z,27.50
2018-07-14T10:24:58.951Z,26.90
2018-07-14T10:27:27.389Z,26.60
2018-07-14T10:29:55.953Z,26.60
2018-07-14T10:32:24.430Z,26.90
2018-07-14T10:34:52.883Z,27.20
2018-07-14T10:37:21.377Z,27.70
2018-07-14T10:39:49.897Z,27.90
2018-07-14T10:42:18.467Z,27.80
2018-07-14T10:44:47.001Z,27.90
2018-07-14T10:47:15.515Z,27.90
2018-07-14T10:49:44.000Z,27.80
2018-07-14T10:52:12.496Z,27.80
2018-07-14T10:54:41.004Z,27.80
2018-07-14T10:57:09.613Z,27.90
2018-07-14T10:59:38.105Z,28.40
2018-07-14T11:02:06.810Z,28.50
2018-07-14T11:04:35.324Z,28.20
2018-07-14T11:07:04.033Z,28.10
2018-07-14T11:09:32.532Z,28.10
2018-07-14T11:12:01.076Z,28.20
2018-07-14T11:14:29.512Z,28.60
2018-07-14T11:16:58.066Z,28.20
2018-07-14T11:19:26.542Z,28.20
2018-07-14T11:21:54.987Z,28.90
2018-07-14T11:24:23.451Z,29.30
2018-07-14T11:26:52.086Z,28.80
2018-07-14T11:29:20.514Z,29.00
2018-07-14T11:31:49.020Z,29.00
2018-07-14T11:34:17.570Z,29.20
2018-07-14T11:36:46.047Z,29.80
2018-07-14T11:39:14.508Z,30.40
2018-07-14T11:41:42.975Z,29.90
2018-07-14T11:44:11.468Z,29.30
2018-07-14T11:46:39.930Z,28.70
2018-07-14T11:49:08.500Z,28.90
2018-07-14T11:51:36.980Z,29.00
2018-07-14T11:54:05.465Z,29.30
2018-07-14T11:56:33.908Z,29.60
2018-07-14T11:59:02.368Z,30.10
2018-07-14T12:01:30.913Z,30.00
2018-07-14T12:03:59.314Z,30.20
2018-07-14T12:06:27.788Z,30.30
2018-07-14T12:08:56.335Z,29.80
2018-07-14T12:11:24.770Z,29.50
2018-07-14T12:13:53.217Z,29.50
2018-07-14T12:16:21.768Z,28.80
2018-07-14T12:18:53.811Z,28.90
2018-07-14T12:21:22.314Z,29.50
2018-07-14T12:23:50.873Z,29.90
2018-07-14T12:26:19.374Z,30.10
2018-07-14T12:28:48.049Z,30.20
2018-07-14T12:31:16.506Z,29.70
2018-07-14T12:33:45.009Z,29.30
2018-07-14T12:36:13.466Z,29.20
2018-07-14T12:38:42.000Z,29.60
2018-07-14T12:41:10.491Z,29.50
2018-07-14T12:43:38.977Z,29.70
2018-07-14T12:46:07.440Z,29.90
2018-07-14T12:48:35.970Z,30.60
2018-07-14T12:51:04.466Z,30.40
2018-07-14T12:53:32.968Z,30.50
2018-07-14T12:56:01.456Z,30.60
2018-07-14T12:58:29.935Z,30.30
2018-07-14T13:03:26.616Z,30.20
2018-07-14T13:05:55.118Z,30.50
2018-07-14T13:08:23.726Z,30.50
2018-07-14T13:10:52.194Z,30.30
2018-07-14T13:13:20.766Z,30.80
2018-07-14T13:15:49.267Z,30.60
2018-07-14T13:18:17.914Z,30.30
2018-07-14T13:20:46.404Z,29.90
2018-07-14T13:23:14.882Z,29.40
2018-07-14T13:25:43.348Z,29.50
2018-07-14T13:28:11.820Z,30.20
2018-07-14T13:30:40.274Z,31.10
2018-07-14T13:33:08.775Z,31.90
2018-07-14T13:35:37.330Z,32.30
2018-07-14T13:38:05.857Z,32.10
2018-07-14T13:40:34.379Z,31.50
2018-07-14T13:43:02.883Z,30.60
2018-07-14T13:45:31.397Z,30.60
2018-07-14T13:47:59.872Z,31.50
2018-07-14T13:50:28.375Z,31.90
2018-07-14T13:52:56.851Z,32.20
2018-07-14T13:55:25.430Z,32.10
2018-07-14T13:57:53.947Z,31.50
2018-07-14T14:00:22.457Z,31.10
2018-07-14T14:02:50.909Z,30.80
2018-07-14T14:05:19.386Z,30.60
2018-07-14T14:07:47.819Z,30.50
2018-07-14T14:10:16.279Z,30.50
2018-07-14T14:12:44.767Z,30.60
2018-07-14T14:15:13.283Z,31.10
2018-07-14T14:17:41.735Z,31.10
2018-07-14T14:20:10.226Z,30.70
2018-07-14T14:22:38.698Z,30.80
2018-07-14T14:25:07.203Z,30.90
2018-07-14T14:27:35.695Z,30.90
2018-07-14T14:30:04.225Z,30.90
2018-07-14T14:32:32.734Z,30.60
2018-07-14T14:35:01.391Z,31.10
2018-07-14T14:37:31.375Z,31.50
2018-07-14T14:39:59.858Z,31.10
2018-07-14T14:42:28.339Z,30.50
2018-07-14T14:44:56.946Z,30.10
2018-07-14T14:47:25.476Z,30.50
2018-07-14T14:49:54.384Z,30.50
2018-07-14T14:52:23.911Z,30.50
2018-07-14T14:54:52.368Z,30.60
2018-07-14T14:57:20.844Z,30.60
2018-07-14T14:59:49.401Z,29.80
2018-07-14T15:02:17.829Z,29.60
2018-07-14T15:04:46.331Z,29.40
2018-07-14T15:07:14.819Z,29.30
2018-07-14T15:09:43.240Z,29.00
2018-07-14T15:12:11.782Z,28.70
2018-07-14T15:14:40.295Z,28.60
2018-07-14T15:17:08.848Z,28.60
2018-07-14T15:19:37.310Z,28.60
2018-07-14T15:22:05.799Z,28.70
2018-07-14T15:24:34.280Z,28.60
2018-07-14T15:27:02.842Z,28.40
2018-07-14T15:29:31.268Z,28.50
2018-07-14T15:31:59.699Z,28.70
2018-07-14T15:34:28.149Z,28.70
2018-07-14T15:36:56.727Z,28.20
2018-07-14T15:39:25.187Z,28.20
2018-07-14T15:41:53.700Z,28.00
2018-07-14T15:44:22.150Z,27.90
2018-07-14T15:46:50.616Z,27.90
2018-07-14T15:49:19.148Z,28.00
2018-07-14T15:51:47.601Z,27.90
2018-07-14T15:54:16.518Z,27.90
2018-07-14T15:56:44.985Z,27.90
2018-07-14T15:59:13.502Z,27.80
2018-07-14T16:01:42.016Z,27.80
2018-07-14T16:04:10.495Z,27.90
2018-07-14T16:06:39.003Z,27.90
2018-07-14T16:09:07.787Z,27.90
2018-07-14T16:11:36.387Z,27.80
2018-07-14T16:14:04.896Z,27.80
2018-07-14T16:16:33.411Z,27.70
2018-07-14T16:19:01.957Z,27.60
2018-07-14T16:21:30.623Z,27.60
2018-07-14T16:23:59.081Z,27.60
2018-07-14T16:26:27.572Z,27.60
2018-07-14T16:28:56.035Z,27.60
2018-07-14T16:31:24.483Z,27.60
2018-07-14T16:33:52.964Z,27.60
2018-07-14T16:36:21.454Z,27.40
2018-07-14T16:38:49.965Z,27.30
2018-07-14T16:41:18.409Z,27.30
2018-07-14T16:43:46.847Z,27.30
2018-07-14T16:46:15.411Z,27.30
2018-07-14T16:48:43.884Z,27.20
2018-07-14T16:51:12.331Z,27.10
2018-07-14T16:53:40.788Z,27.10
2018-07-14T16:56:09.365Z,27.00
2018-07-14T16:58:37.886Z,27.10
2018-07-14T17:01:06.376Z,27.20
2018-07-14T17:03:34.813Z,27.10
2018-07-14T17:06:03.392Z,27.10
2018-07-14T17:08:31.866Z,27.00
2018-07-14T17:11:00.462Z,27.10
2018-07-14T17:15:57.142Z,27.10
2018-07-14T17:18:25.912Z,27.00
2018-07-14T17:20:54.390Z,27.00
2018-07-14T17:23:22.844Z,27.00
2018-07-14T17:25:51.293Z,27.10
2018-07-14T17:28:19.805Z,26.90
2018-07-14T17:33:16.590Z,27.00
2018-07-14T17:35:45.130Z,27.00
2018-07-14T17:38:13.517Z,27.00
2018-07-14T17:40:41.961Z,26.90
2018-07-14T17:43:10.526Z,26.90
2018-07-14T17:45:39.127Z,26.80
2018-07-14T17:48:08.151Z,26.70
2018-07-14T17:50:36.610Z,26.50
2018-07-14T17:53:05.095Z,26.50
2018-07-14T17:55:33.767Z,26.50
2018-07-14T17:58:02.302Z,26.50
2018-07-14T18:00:30.817Z,26.50
2018-07-14T18:02:59.294Z,26.50
2018-07-14T18:05:27.802Z,26.40
2018-07-14T18:07:56.294Z,26.40
2018-07-14T18:10:24.852Z,26.40
2018-07-14T18:12:53.326Z,26.40
2018-07-14T18:15:21.902Z,26.30
2018-07-14T18:17:50.367Z,26.30
2018-07-14T18:20:18.801Z,26.20
2018-07-14T18:22:47.275Z,26.30
2018-07-14T18:25:15.750Z,26.30
2018-07-14T18:27:44.282Z,26.20
2018-07-14T18:30:13.789Z,26.20
2018-07-14T18:32:43.493Z,26.10
2018-07-14T18:35:11.992Z,26.10
2018-07-14T18:37:40.691Z,26.00
2018-07-14T18:42:38.602Z,25.90
2018-07-14T18:47:35.234Z,25.80
2018-07-14T18:50:03.744Z,25.70
2018-07-14T18:52:32.351Z,25.70
2018-07-14T18:55:00.797Z,25.60
2018-07-14T18:57:29.281Z,25.60
2018-07-14T19:02:25.978Z,25.50
2018-07-14T19:04:54.420Z,25.40
2018-07-14T19:07:23.173Z,25.40
2018-07-14T19:09:51.629Z,25.20
2018-07-14T19:12:20.058Z,25.10
2018-07-14T19:14:48.526Z,25.10
2018-07-14T19:17:17.005Z,25.10
2018-07-14T19:19:45.498Z,25.00
2018-07-14T19:27:10.563Z,24.90
2018-07-14T19:32:07.645Z,24.80
2018-07-14T19:34:36.424Z,24.80
2018-07-14T19:37:04.891Z,24.80
2018-07-14T19:39:33.412Z,24.70
2018-07-14T19:42:02.000Z,24.70
2018-07-14T19:44:30.565Z,24.60
2018-07-14T19:46:59.132Z,24.50
2018-07-14T19:49:27.596Z,24.40
2018-07-14T19:51:56.059Z,24.30
2018-07-14T19:54:24.595Z,24.20
2018-07-14T19:56:53.013Z,24.10
2018-07-14T19:59:21.519Z,24.10
2018-07-14T20:04:18.184Z,24.00
2018-07-14T20:06:46.672Z,24.00
2018-07-14T20:09:15.263Z,23.90
2018-07-14T20:11:43.814Z,23.90
2018-07-14T20:14:12.902Z,23.80
2018-07-14T20:16:41.382Z,23.70
2018-07-14T20:19:09.809Z,23.70
2018-07-14T20:21:38.222Z,23.60
2018-07-14T20:24:06.946Z,23.60
2018-07-14T20:26:35.395Z,23.50
2018-07-14T20:29:04.043Z,23.40
2018-07-14T20:31:32.645Z,23.40
2018-07-14T20:34:01.455Z,23.20
2018-07-14T20:36:29.910Z,23.20
2018-07-14T20:38:58.433Z,23.10
2018-07-14T20:41:26.892Z,23.00
2018-07-14T20:46:23.483Z,22.90
2018-07-14T20:48:51.914Z,22.90
2018-07-14T20:51:20.368Z,22.80
2018-07-14T20:53:48.901Z,22.70
2018-07-14T20:56:17.393Z,22.70
2018-07-14T20:58:45.824Z,22.60
2018-07-14T21:01:14.328Z,22.60
2018-07-14T21:03:42.891Z,22.50
2018-07-14T21:11:07.864Z,22.30
2018-07-14T21:13:36.317Z,22.30
2018-07-14T21:16:04.825Z,22.20
2018-07-14T21:18:33.265Z,22.20
2018-07-14T21:23:29.930Z,22.10
2018-07-14T21:25:58.396Z,22.00
2018-07-14T21:28:26.836Z,22.00
2018-07-14T21:30:55.268Z,21.90
2018-07-14T21:35:52.126Z,21.80
2018-07-14T21:38:20.599Z,21.70
2018-07-14T21:40:49.130Z,21.70
2018-07-14T21:43:17.578Z,21.60
2018-07-14T21:45:46.004Z,21.60
2018-07-14T21:48:14.462Z,21.50
2018-07-14T21:50:43.113Z,21.40
2018-07-14T21:53:11.661Z,21.40
2018-07-14T21:55:40.241Z,21.40
2018-07-14T21:58:10.006Z,21.30
2018-07-14T22:00:45.310Z,21.30
2018-07-14T22:03:13.835Z,21.20
2018-07-14T22:05:43.140Z,21.20
2018-07-14T22:08:11.670Z,21.10
2018-07-14T22:10:40.229Z,21.10
2018-07-14T22:13:08.734Z,21.00
2018-07-14T22:15:37.315Z,21.00
2018-07-14T22:18:05.766Z,20.90
2018-07-14T22:23:02.444Z,20.80
2018-07-14T22:25:30.905Z,20.80
2018-07-14T22:27:59.378Z,20.70
2018-07-14T22:32:56.783Z,20.60
2018-07-14T22:35:25.242Z,20.60
2018-07-14T22:37:53.960Z,20.50
2018-07-14T22:40:22.647Z,20.50
2018-07-14T22:42:51.086Z,20.50
2018-07-14T22:45:19.582Z,20.40
2018-07-14T22:47:48.029Z,20.40
2018-07-14T22:50:16.581Z,20.30
2018-07-14T22:52:45.135Z,20.30
2018-07-14T22:55:13.836Z,20.20
2018-07-14T22:57:42.247Z,20.20
2018-07-14T23:00:10.903Z,20.10
2018-07-14T23:02:39.397Z,20.10
2018-07-14T23:05:08.071Z,20.10
2018-07-14T23:07:36.556Z,20.00
2018-07-14T23:10:05.330Z,20.00
2018-07-14T23:12:33.757Z,19.90
2018-07-14T23:15:02.259Z,19.90
2018-07-14T23:17:30.804Z,19.80
2018-07-14T23:19:59.260Z,19.80
2018-07-14T23:27:24.609Z,19.70
2018-07-14T23:29:53.189Z,19.60
2018-07-14T23:32:21.757Z,19.60
2018-07-14T23:34:50.334Z,19.50
2018-07-14T23:37:18.785Z,19.50
2018-07-14T23:39:47.293Z,19.50
2018-07-14T23:42:17.033Z,19.40
2018-07-14T23:44:45.486Z,19.40
2018-07-14T23:47:13.966Z,19.30
2018-07-14T23:49:42.562Z,19.30
2018-07-14T23:52:11.058Z,19.20
2018-07-14T23:57:08.135Z,19.20
2018-07-14T23:59:36.646Z,19.10
